sensor_id;sensor_type;location;lat;lon;timestamp;P1;durP1;ratioP1;P2;durP2;ratioP2
49472;SDS011;67434;50.956;6.918;2023-02-02T00:00:34;14.60;;;3.35;;
49472;SDS011;67434;50.956;6.918;2023-02-02T00:03:20;14.57;;;3.30;;
49472;SDS011;67434;50.956;6.918;2023-02-02T00:06:05;15.07;;;4.18;;
49472;SDS011;67434;50.956;6.918;2023-02-02T00:08:51;18.80;;;3.28;;
49472;SDS011;67434;50.956;6.918;2023-02-02T00:11:37;15.25;;;4.00;;
49472;SDS011;67434;50.956;6.918;2023-02-02T00:17:09;13.48;;;3.40;;
49472;SDS011;67434;50.956;6.918;2023-02-02T00:19:55;16.13;;;3.70;;
49472;SDS011;67434;50.956;6.918;2023-02-02T00:22:41;16.35;;;3.33;;
49472;SDS011;67434;50.956;6.918;2023-02-02T00:28:13;10.07;;;3.28;;
49472;SDS011;67434;50.956;6.918;2023-02-02T00:30:59;15.27;;;3.67;;
49472;SDS011;67434;50.956;6.918;2023-02-02T00:33:45;12.63;;;2.95;;
49472;SDS011;67434;50.956;6.918;2023-02-02T00:36:32;20.00;;;3.42;;
49472;SDS011;67434;50.956;6.918;2023-02-02T00:42:05;10.23;;;3.92;;
49472;SDS011;67434;50.956;6.918;2023-02-02T00:47:55;11.63;;;2.78;;
49472;SDS011;67434;50.956;6.918;2023-02-02T00:50:40;12.55;;;3.53;;
49472;SDS011;67434;50.956;6.918;2023-02-02T00:56:12;10.17;;;2.80;;
49472;SDS011;67434;50.956;6.918;2023-02-02T01:01:43;15.60;;;3.47;;
49472;SDS011;67434;50.956;6.918;2023-02-02T01:04:28;14.02;;;3.30;;
49472;SDS011;67434;50.956;6.918;2023-02-02T01:07:14;14.88;;;2.88;;
49472;SDS011;67434;50.956;6.918;2023-02-02T01:10:00;9.52;;;2.83;;
49472;SDS011;67434;50.956;6.918;2023-02-02T01:12:45;13.73;;;3.03;;
49472;SDS011;67434;50.956;6.918;2023-02-02T01:18:17;8.13;;;2.00;;
49472;SDS011;67434;50.956;6.918;2023-02-02T01:23:49;12.50;;;2.67;;
49472;SDS011;67434;50.956;6.918;2023-02-02T01:29:20;11.47;;;3.20;;
49472;SDS011;67434;50.956;6.918;2023-02-02T01:34:52;19.08;;;3.97;;
49472;SDS011;67434;50.956;6.918;2023-02-02T01:37:37;10.65;;;3.67;;
49472;SDS011;67434;50.956;6.918;2023-02-02T01:43:14;15.77;;;3.43;;
49472;SDS011;67434;50.956;6.918;2023-02-02T01:46:09;14.85;;;3.35;;
49472;SDS011;67434;50.956;6.918;2023-02-02T01:51:54;11.63;;;3.05;;
49472;SDS011;67434;50.956;6.918;2023-02-02T01:54:44;23.40;;;3.45;;
49472;SDS011;67434;50.956;6.918;2023-02-02T01:57:39;13.45;;;3.25;;
49472;SDS011;67434;50.956;6.918;2023-02-02T02:00:29;11.85;;;3.38;;
49472;SDS011;67434;50.956;6.918;2023-02-02T02:03:16;20.35;;;3.30;;
49472;SDS011;67434;50.956;6.918;2023-02-02T02:06:06;11.52;;;3.92;;
49472;SDS011;67434;50.956;6.918;2023-02-02T02:08:55;12.93;;;3.30;;
49472;SDS011;67434;50.956;6.918;2023-02-02T02:11:47;19.67;;;4.65;;
49472;SDS011;67434;50.956;6.918;2023-02-02T02:14:33;13.95;;;3.20;;
49472;SDS011;67434;50.956;6.918;2023-02-02T02:17:48;11.95;;;3.40;;
49472;SDS011;67434;50.956;6.918;2023-02-02T02:24:37;27.50;;;3.53;;
49472;SDS011;67434;50.956;6.918;2023-02-02T02:33:56;23.58;;;3.65;;
49472;SDS011;67434;50.956;6.918;2023-02-02T02:36:53;20.45;;;3.75;;
49472;SDS011;67434;50.956;6.918;2023-02-02T02:43:01;15.68;;;3.42;;
49472;SDS011;67434;50.956;6.918;2023-02-02T02:45:53;17.38;;;2.78;;
49472;SDS011;67434;50.956;6.918;2023-02-02T02:48:41;15.07;;;3.10;;
49472;SDS011;67434;50.956;6.918;2023-02-02T02:51:40;13.18;;;3.40;;
49472;SDS011;67434;50.956;6.918;2023-02-02T02:54:32;16.92;;;3.30;;
49472;SDS011;67434;50.956;6.918;2023-02-02T03:00:27;11.63;;;3.95;;
49472;SDS011;67434;50.956;6.918;2023-02-02T03:06:50;11.50;;;3.47;;
49472;SDS011;67434;50.956;6.918;2023-02-02T03:09:41;12.68;;;3.20;;
49472;SDS011;67434;50.956;6.918;2023-02-02T03:12:28;11.35;;;3.25;;
49472;SDS011;67434;50.956;6.918;2023-02-02T03:15:14;12.00;;;3.40;;
49472;SDS011;67434;50.956;6.918;2023-02-02T03:18:01;15.60;;;3.92;;
49472;SDS011;67434;50.956;6.918;2023-02-02T03:20:46;18.00;;;4.70;;
49472;SDS011;67434;50.956;6.918;2023-02-02T03:23:32;17.65;;;4.10;;
49472;SDS011;67434;50.956;6.918;2023-02-02T03:26:18;18.65;;;3.67;;
49472;SDS011;67434;50.956;6.918;2023-02-02T03:29:04;14.18;;;5.55;;
49472;SDS011;67434;50.956;6.918;2023-02-02T03:31:50;22.80;;;4.35;;
49472;SDS011;67434;50.956;6.918;2023-02-02T03:37:21;13.70;;;4.20;;
49472;SDS011;67434;50.956;6.918;2023-02-02T03:40:07;14.23;;;4.45;;
49472;SDS011;67434;50.956;6.918;2023-02-02T03:42:53;17.38;;;4.55;;
49472;SDS011;67434;50.956;6.918;2023-02-02T03:45:40;20.73;;;4.25;;
49472;SDS011;67434;50.956;6.918;2023-02-02T03:48:26;18.27;;;4.63;;
49472;SDS011;67434;50.956;6.918;2023-02-02T03:51:12;10.82;;;3.70;;
49472;SDS011;67434;50.956;6.918;2023-02-02T03:53:59;16.02;;;4.82;;
49472;SDS011;67434;50.956;6.918;2023-02-02T03:59:30;12.15;;;4.57;;
49472;SDS011;67434;50.956;6.918;2023-02-02T04:05:01;17.90;;;4.57;;
49472;SDS011;67434;50.956;6.918;2023-02-02T04:07:47;14.77;;;5.50;;
49472;SDS011;67434;50.956;6.918;2023-02-02T04:10:33;19.02;;;4.78;;
49472;SDS011;67434;50.956;6.918;2023-02-02T04:16:05;13.30;;;4.25;;
49472;SDS011;67434;50.956;6.918;2023-02-02T04:18:51;24.92;;;4.97;;
49472;SDS011;67434;50.956;6.918;2023-02-02T04:24:22;25.03;;;4.93;;
49472;SDS011;67434;50.956;6.918;2023-02-02T04:29:53;21.47;;;4.40;;
49472;SDS011;67434;50.956;6.918;2023-02-02T04:35:24;16.27;;;4.67;;
49472;SDS011;67434;50.956;6.918;2023-02-02T04:40:55;23.73;;;4.90;;
49472;SDS011;67434;50.956;6.918;2023-02-02T04:46:26;16.90;;;4.07;;
49472;SDS011;67434;50.956;6.918;2023-02-02T04:49:12;21.13;;;5.18;;
49472;SDS011;67434;50.956;6.918;2023-02-02T04:54:44;21.43;;;5.43;;
49472;SDS011;67434;50.956;6.918;2023-02-02T05:00:15;17.07;;;3.13;;
49472;SDS011;67434;50.956;6.918;2023-02-02T05:03:01;17.17;;;3.83;;
49472;SDS011;67434;50.956;6.918;2023-02-02T05:08:32;20.23;;;4.60;;
49472;SDS011;67434;50.956;6.918;2023-02-02T05:11:22;11.23;;;4.13;;
49472;SDS011;67434;50.956;6.918;2023-02-02T05:14:08;14.60;;;4.97;;
49472;SDS011;67434;50.956;6.918;2023-02-02T05:16:54;17.35;;;4.90;;
49472;SDS011;67434;50.956;6.918;2023-02-02T05:22:25;17.52;;;4.47;;
49472;SDS011;67434;50.956;6.918;2023-02-02T05:25:11;18.60;;;5.25;;
49472;SDS011;67434;50.956;6.918;2023-02-02T05:30:42;14.90;;;3.72;;
49472;SDS011;67434;50.956;6.918;2023-02-02T05:36:14;24.63;;;4.77;;
49472;SDS011;67434;50.956;6.918;2023-02-02T05:38:59;18.70;;;5.32;;
49472;SDS011;67434;50.956;6.918;2023-02-02T05:41:45;20.48;;;4.45;;
49472;SDS011;67434;50.956;6.918;2023-02-02T05:44:31;19.75;;;4.60;;
49472;SDS011;67434;50.956;6.918;2023-02-02T05:47:17;19.30;;;5.93;;
49472;SDS011;67434;50.956;6.918;2023-02-02T05:50:02;20.23;;;5.47;;
49472;SDS011;67434;50.956;6.918;2023-02-02T05:52:48;16.05;;;5.25;;
49472;SDS011;67434;50.956;6.918;2023-02-02T05:55:36;17.15;;;5.38;;
49472;SDS011;67434;50.956;6.918;2023-02-02T05:58:22;16.75;;;5.18;;
49472;SDS011;67434;50.956;6.918;2023-02-02T06:01:08;16.55;;;5.45;;
49472;SDS011;67434;50.956;6.918;2023-02-02T06:03:54;19.73;;;4.82;;
49472;SDS011;67434;50.956;6.918;2023-02-02T06:06:40;19.98;;;5.00;;
49472;SDS011;67434;50.956;6.918;2023-02-02T06:09:26;27.02;;;5.97;;
49472;SDS011;67434;50.956;6.918;2023-02-02T06:14:57;20.37;;;5.93;;
49472;SDS011;67434;50.956;6.918;2023-02-02T06:17:43;16.00;;;4.97;;
49472;SDS011;67434;50.956;6.918;2023-02-02T06:20:28;14.02;;;5.43;;
49472;SDS011;67434;50.956;6.918;2023-02-02T06:23:14;15.00;;;5.40;;
49472;SDS011;67434;50.956;6.918;2023-02-02T06:28:48;21.48;;;4.75;;
49472;SDS011;67434;50.956;6.918;2023-02-02T06:31:35;11.98;;;5.43;;
49472;SDS011;67434;50.956;6.918;2023-02-02T06:34:21;16.40;;;7.35;;
49472;SDS011;67434;50.956;6.918;2023-02-02T06:39:52;13.33;;;5.43;;
49472;SDS011;67434;50.956;6.918;2023-02-02T06:45:23;17.67;;;5.22;;
49472;SDS011;67434;50.956;6.918;2023-02-02T06:48:09;13.63;;;5.47;;
49472;SDS011;67434;50.956;6.918;2023-02-02T06:50:58;12.38;;;4.80;;
49472;SDS011;67434;50.956;6.918;2023-02-02T06:53:46;14.40;;;6.70;;
49472;SDS011;67434;50.956;6.918;2023-02-02T06:56:33;11.43;;;5.43;;
49472;SDS011;67434;50.956;6.918;2023-02-02T06:59:19;13.70;;;4.95;;
49472;SDS011;67434;50.956;6.918;2023-02-02T07:02:05;21.27;;;7.47;;
49472;SDS011;67434;50.956;6.918;2023-02-02T07:04:54;17.50;;;5.55;;
49472;SDS011;67434;50.956;6.918;2023-02-02T07:10:25;19.43;;;6.07;;
49472;SDS011;67434;50.956;6.918;2023-02-02T07:15:56;19.47;;;4.60;;
49472;SDS011;67434;50.956;6.918;2023-02-02T07:18:42;15.75;;;5.82;;
49472;SDS011;67434;50.956;6.918;2023-02-02T07:24:35;19.45;;;6.13;;
49472;SDS011;67434;50.956;6.918;2023-02-02T07:27:22;11.50;;;6.22;;
49472;SDS011;67434;50.956;6.918;2023-02-02T07:32:54;19.48;;;6.18;;
49472;SDS011;67434;50.956;6.918;2023-02-02T07:35:40;17.80;;;4.68;;
49472;SDS011;67434;50.956;6.918;2023-02-02T07:41:11;14.40;;;4.90;;
49472;SDS011;67434;50.956;6.918;2023-02-02T07:43:58;13.95;;;5.25;;
49472;SDS011;67434;50.956;6.918;2023-02-02T07:52:15;15.20;;;4.88;;
49472;SDS011;67434;50.956;6.918;2023-02-02T07:57:46;17.23;;;4.73;;
49472;SDS011;67434;50.956;6.918;2023-02-02T08:00:32;16.00;;;4.72;;
49472;SDS011;67434;50.956;6.918;2023-02-02T08:02:57;20.40;;;6.32;;
49472;SDS011;67434;50.956;6.918;2023-02-02T08:05:23;12.25;;;5.30;;
49472;SDS011;67434;50.956;6.918;2023-02-02T08:07:48;14.80;;;5.22;;
49472;SDS011;67434;50.956;6.918;2023-02-02T08:10:14;18.15;;;5.68;;
49472;SDS011;67434;50.956;6.918;2023-02-02T08:12:39;14.13;;;5.13;;
49472;SDS011;67434;50.956;6.918;2023-02-02T08:15:05;11.40;;;4.50;;
49472;SDS011;67434;50.956;6.918;2023-02-02T08:17:31;15.63;;;5.35;;
49472;SDS011;67434;50.956;6.918;2023-02-02T08:19:57;13.90;;;6.03;;
49472;SDS011;67434;50.956;6.918;2023-02-02T08:22:22;15.38;;;4.78;;
49472;SDS011;67434;50.956;6.918;2023-02-02T08:24:47;13.77;;;4.63;;
49472;SDS011;67434;50.956;6.918;2023-02-02T08:27:14;20.05;;;6.07;;
49472;SDS011;67434;50.956;6.918;2023-02-02T08:29:40;19.27;;;7.10;;
49472;SDS011;67434;50.956;6.918;2023-02-02T08:32:05;16.00;;;5.25;;
49472;SDS011;67434;50.956;6.918;2023-02-02T08:34:30;15.00;;;5.97;;
49472;SDS011;67434;50.956;6.918;2023-02-02T08:36:58;14.68;;;5.25;;
49472;SDS011;67434;50.956;6.918;2023-02-02T08:39:24;16.00;;;6.57;;
49472;SDS011;67434;50.956;6.918;2023-02-02T08:41:49;15.00;;;5.85;;
49472;SDS011;67434;50.956;6.918;2023-02-02T08:44:21;23.60;;;6.28;;
49472;SDS011;67434;50.956;6.918;2023-02-02T08:46:47;12.52;;;6.13;;
49472;SDS011;67434;50.956;6.918;2023-02-02T08:49:12;11.35;;;4.88;;
49472;SDS011;67434;50.956;6.918;2023-02-02T08:51:38;17.15;;;5.28;;
49472;SDS011;67434;50.956;6.918;2023-02-02T08:54:03;11.85;;;5.25;;
49472;SDS011;67434;50.956;6.918;2023-02-02T08:56:28;13.10;;;6.25;;
49472;SDS011;67434;50.956;6.918;2023-02-02T08:58:55;23.75;;;6.97;;
49472;SDS011;67434;50.956;6.918;2023-02-02T09:01:26;20.27;;;6.35;;
49472;SDS011;67434;50.956;6.918;2023-02-02T09:03:54;14.57;;;5.72;;
49472;SDS011;67434;50.956;6.918;2023-02-02T09:06:27;26.95;;;7.22;;
49472;SDS011;67434;50.956;6.918;2023-02-02T09:08:56;17.48;;;5.90;;
49472;SDS011;67434;50.956;6.918;2023-02-02T09:11:40;23.50;;;7.28;;
49472;SDS011;67434;50.956;6.918;2023-02-02T09:14:26;12.02;;;6.80;;
49472;SDS011;67434;50.956;6.918;2023-02-02T09:17:12;17.52;;;7.70;;
49472;SDS011;67434;50.956;6.918;2023-02-02T09:19:58;13.90;;;6.03;;
49472;SDS011;67434;50.956;6.918;2023-02-02T09:22:43;12.07;;;5.97;;
49472;SDS011;67434;50.956;6.918;2023-02-02T09:28:14;21.03;;;7.00;;
49472;SDS011;67434;50.956;6.918;2023-02-02T09:31:00;23.88;;;8.57;;
49472;SDS011;67434;50.956;6.918;2023-02-02T09:33:47;19.85;;;6.32;;
49472;SDS011;67434;50.956;6.918;2023-02-02T09:36:33;13.77;;;6.68;;
49472;SDS011;67434;50.956;6.918;2023-02-02T09:39:19;19.67;;;7.22;;
49472;SDS011;67434;50.956;6.918;2023-02-02T09:42:12;14.65;;;6.65;;
49472;SDS011;67434;50.956;6.918;2023-02-02T09:45:25;19.55;;;7.28;;
49472;SDS011;67434;50.956;6.918;2023-02-02T09:49:04;13.63;;;5.95;;
49472;SDS011;67434;50.956;6.918;2023-02-02T09:51:37;18.70;;;6.85;;
49472;SDS011;67434;50.956;6.918;2023-02-02T09:54:27;20.08;;;7.40;;
49472;SDS011;67434;50.956;6.918;2023-02-02T09:57:19;16.98;;;6.85;;
49472;SDS011;67434;50.956;6.918;2023-02-02T10:00:30;15.57;;;7.47;;
49472;SDS011;67434;50.956;6.918;2023-02-02T10:03:26;13.55;;;6.20;;
49472;SDS011;67434;50.956;6.918;2023-02-02T10:09:32;13.10;;;6.13;;
49472;SDS011;67434;50.956;6.918;2023-02-02T10:15:32;20.00;;;6.55;;
49472;SDS011;67434;50.956;6.918;2023-02-02T10:18:29;17.38;;;5.97;;
49472;SDS011;67434;50.956;6.918;2023-02-02T10:21:36;15.18;;;6.63;;
49472;SDS011;67434;50.956;6.918;2023-02-02T10:24:27;12.43;;;6.35;;
49472;SDS011;67434;50.956;6.918;2023-02-02T10:27:14;15.50;;;6.18;;
49472;SDS011;67434;50.956;6.918;2023-02-02T10:30:10;12.52;;;5.38;;
49472;SDS011;67434;50.956;6.918;2023-02-02T10:33:05;13.88;;;6.03;;
49472;SDS011;67434;50.956;6.918;2023-02-02T10:38:51;9.93;;;6.05;;
49472;SDS011;67434;50.956;6.918;2023-02-02T10:41:48;16.23;;;6.28;;
49472;SDS011;67434;50.956;6.918;2023-02-02T10:45:00;19.50;;;7.72;;
49472;SDS011;67434;50.956;6.918;2023-02-02T10:48:00;14.43;;;6.10;;
49472;SDS011;67434;50.956;6.918;2023-02-02T10:50:47;15.10;;;6.07;;
49472;SDS011;67434;50.956;6.918;2023-02-02T10:53:36;15.05;;;5.88;;
49472;SDS011;67434;50.956;6.918;2023-02-02T10:56:29;12.93;;;5.78;;
49472;SDS011;67434;50.956;6.918;2023-02-02T10:59:27;15.82;;;6.93;;
49472;SDS011;67434;50.956;6.918;2023-02-02T11:02:17;15.80;;;7.30;;
49472;SDS011;67434;50.956;6.918;2023-02-02T11:05:03;13.55;;;5.53;;
49472;SDS011;67434;50.956;6.918;2023-02-02T11:08:21;17.45;;;6.32;;
49472;SDS011;67434;50.956;6.918;2023-02-02T11:11:20;12.10;;;6.00;;
49472;SDS011;67434;50.956;6.918;2023-02-02T11:19:50;12.47;;;5.87;;
49472;SDS011;67434;50.956;6.918;2023-02-02T11:22:39;13.13;;;5.70;;
49472;SDS011;67434;50.956;6.918;2023-02-02T11:25:26;19.65;;;6.65;;
49472;SDS011;67434;50.956;6.918;2023-02-02T11:28:18;11.82;;;5.28;;
49472;SDS011;67434;50.956;6.918;2023-02-02T11:31:05;15.20;;;5.63;;
49472;SDS011;67434;50.956;6.918;2023-02-02T11:33:50;12.82;;;5.68;;
49472;SDS011;67434;50.956;6.918;2023-02-02T11:46:04;17.95;;;5.55;;
49472;SDS011;67434;50.956;6.918;2023-02-02T11:48:56;13.90;;;4.97;;
49472;SDS011;67434;50.956;6.918;2023-02-02T11:52:00;13.37;;;6.07;;
49472;SDS011;67434;50.956;6.918;2023-02-02T11:54:49;17.15;;;5.57;;
49472;SDS011;67434;50.956;6.918;2023-02-02T11:57:37;15.40;;;5.70;;
49472;SDS011;67434;50.956;6.918;2023-02-02T12:00:23;11.35;;;5.47;;
49472;SDS011;67434;50.956;6.918;2023-02-02T12:03:21;12.73;;;5.28;;
49472;SDS011;67434;50.956;6.918;2023-02-02T12:06:25;12.77;;;5.70;;
49472;SDS011;67434;50.956;6.918;2023-02-02T12:09:18;10.40;;;5.40;;
49472;SDS011;67434;50.956;6.918;2023-02-02T12:12:08;9.25;;;5.20;;
49472;SDS011;67434;50.956;6.918;2023-02-02T12:15:14;13.20;;;4.78;;
49472;SDS011;67434;50.956;6.918;2023-02-02T12:21:20;10.90;;;4.97;;
49472;SDS011;67434;50.956;6.918;2023-02-02T12:24:30;13.80;;;5.63;;
49472;SDS011;67434;50.956;6.918;2023-02-02T12:27:24;14.57;;;5.25;;
49472;SDS011;67434;50.956;6.918;2023-02-02T12:43:36;11.95;;;4.63;;
49472;SDS011;67434;50.956;6.918;2023-02-02T12:58:40;12.85;;;5.18;;
49472;SDS011;67434;50.956;6.918;2023-02-02T13:04:37;9.87;;;4.37;;
49472;SDS011;67434;50.956;6.918;2023-02-02T13:13:30;14.52;;;5.05;;
49472;SDS011;67434;50.956;6.918;2023-02-02T13:16:21;15.52;;;4.57;;
49472;SDS011;67434;50.956;6.918;2023-02-02T13:19:09;8.90;;;5.05;;
49472;SDS011;67434;50.956;6.918;2023-02-02T13:22:03;11.75;;;4.53;;
49472;SDS011;67434;50.956;6.918;2023-02-02T13:24:54;9.95;;;4.60;;
49472;SDS011;67434;50.956;6.918;2023-02-02T13:27:44;14.82;;;3.95;;
49472;SDS011;67434;50.956;6.918;2023-02-02T13:30:32;12.93;;;4.45;;
49472;SDS011;67434;50.956;6.918;2023-02-02T13:33:23;5.28;;;3.80;;
49472;SDS011;67434;50.956;6.918;2023-02-02T13:36:25;10.00;;;4.20;;
49472;SDS011;67434;50.956;6.918;2023-02-02T13:39:19;13.48;;;5.32;;
49472;SDS011;67434;50.956;6.918;2023-02-02T13:42:19;10.85;;;4.15;;
49472;SDS011;67434;50.956;6.918;2023-02-02T13:48:16;10.85;;;4.68;;
49472;SDS011;67434;50.956;6.918;2023-02-02T13:51:25;7.35;;;3.20;;
49472;SDS011;67434;50.956;6.918;2023-02-02T14:00:49;9.07;;;3.30;;
49472;SDS011;67434;50.956;6.918;2023-02-02T14:03:39;14.40;;;3.30;;
49472;SDS011;67434;50.956;6.918;2023-02-02T14:06:27;12.32;;;3.70;;
49472;SDS011;67434;50.956;6.918;2023-02-02T14:09:16;8.60;;;2.63;;
49472;SDS011;67434;50.956;6.918;2023-02-02T14:12:04;8.35;;;3.35;;
49472;SDS011;67434;50.956;6.918;2023-02-02T14:14:52;7.45;;;3.22;;
49472;SDS011;67434;50.956;6.918;2023-02-02T14:20:47;9.75;;;3.10;;
49472;SDS011;67434;50.956;6.918;2023-02-02T14:23:49;6.80;;;2.33;;
49472;SDS011;67434;50.956;6.918;2023-02-02T14:26:46;10.02;;;2.97;;
49472;SDS011;67434;50.956;6.918;2023-02-02T14:40:47;15.20;;;3.72;;
49472;SDS011;67434;50.956;6.918;2023-02-02T14:43:44;6.10;;;2.63;;
49472;SDS011;67434;50.956;6.918;2023-02-02T14:46:37;6.57;;;2.70;;
49472;SDS011;67434;50.956;6.918;2023-02-02T14:49:25;12.68;;;2.80;;
49472;SDS011;67434;50.956;6.918;2023-02-02T14:52:19;5.45;;;2.35;;
49472;SDS011;67434;50.956;6.918;2023-02-02T14:55:17;11.10;;;2.45;;
49472;SDS011;67434;50.956;6.918;2023-02-02T14:58:04;7.78;;;2.92;;
49472;SDS011;67434;50.956;6.918;2023-02-02T15:03:57;7.47;;;2.20;;
49472;SDS011;67434;50.956;6.918;2023-02-02T15:10:08;9.25;;;2.00;;
49472;SDS011;67434;50.956;6.918;2023-02-02T15:13:02;6.97;;;1.88;;
49472;SDS011;67434;50.956;6.918;2023-02-02T15:16:06;9.30;;;1.77;;
49472;SDS011;67434;50.956;6.918;2023-02-02T15:19:13;4.07;;;1.83;;
49472;SDS011;67434;50.956;6.918;2023-02-02T15:22:42;6.50;;;1.98;;
49472;SDS011;67434;50.956;6.918;2023-02-02T15:25:47;8.13;;;2.30;;
49472;SDS011;67434;50.956;6.918;2023-02-02T15:31:44;14.25;;;2.10;;
49472;SDS011;67434;50.956;6.918;2023-02-02T15:37:22;6.23;;;2.63;;
49472;SDS011;67434;50.956;6.918;2023-02-02T15:40:15;9.88;;;2.38;;
49472;SDS011;67434;50.956;6.918;2023-02-02T15:43:07;10.90;;;2.45;;
49472;SDS011;67434;50.956;6.918;2023-02-02T15:46:00;3.78;;;1.60;;
49472;SDS011;67434;50.956;6.918;2023-02-02T15:55:31;5.78;;;1.60;;
49472;SDS011;67434;50.956;6.918;2023-02-02T15:58:26;7.95;;;1.92;;
49472;SDS011;67434;50.956;6.918;2023-02-02T16:01:15;10.35;;;1.85;;
49472;SDS011;67434;50.956;6.918;2023-02-02T16:07:04;6.22;;;1.77;;
49472;SDS011;67434;50.956;6.918;2023-02-02T16:10:00;4.45;;;1.80;;
49472;SDS011;67434;50.956;6.918;2023-02-02T16:12:48;5.47;;;1.70;;
49472;SDS011;67434;50.956;6.918;2023-02-02T16:15:33;3.85;;;1.92;;
49472;SDS011;67434;50.956;6.918;2023-02-02T16:18:19;5.80;;;1.80;;
49472;SDS011;67434;50.956;6.918;2023-02-02T16:21:05;4.85;;;1.67;;
49472;SDS011;67434;50.956;6.918;2023-02-02T16:23:57;10.98;;;2.30;;
49472;SDS011;67434;50.956;6.918;2023-02-02T16:26:44;6.88;;;2.00;;
49472;SDS011;67434;50.956;6.918;2023-02-02T16:29:30;8.20;;;2.85;;
49472;SDS011;67434;50.956;6.918;2023-02-02T16:32:24;6.03;;;2.22;;
49472;SDS011;67434;50.956;6.918;2023-02-02T16:38:29;11.82;;;2.40;;
49472;SDS011;67434;50.956;6.918;2023-02-02T16:50:25;8.05;;;2.70;;
49472;SDS011;67434;50.956;6.918;2023-02-02T16:53:20;6.78;;;2.13;;
49472;SDS011;67434;50.956;6.918;2023-02-02T16:56:07;11.77;;;2.97;;
49472;SDS011;67434;50.956;6.918;2023-02-02T16:58:57;9.93;;;1.80;;
49472;SDS011;67434;50.956;6.918;2023-02-02T17:01:47;5.43;;;1.77;;
49472;SDS011;67434;50.956;6.918;2023-02-02T17:04:35;10.45;;;1.98;;
49472;SDS011;67434;50.956;6.918;2023-02-02T17:07:21;9.52;;;2.08;;
49472;SDS011;67434;50.956;6.918;2023-02-02T17:13:15;5.30;;;1.73;;
49472;SDS011;67434;50.956;6.918;2023-02-02T17:16:18;7.63;;;1.73;;
49472;SDS011;67434;50.956;6.918;2023-02-02T17:19:05;6.00;;;1.63;;
49472;SDS011;67434;50.956;6.918;2023-02-02T17:21:51;7.22;;;2.55;;
49472;SDS011;67434;50.956;6.918;2023-02-02T17:24:36;3.00;;;1.77;;
49472;SDS011;67434;50.956;6.918;2023-02-02T17:27:26;6.18;;;1.50;;
49472;SDS011;67434;50.956;6.918;2023-02-02T17:30:15;3.45;;;1.85;;
49472;SDS011;67434;50.956;6.918;2023-02-02T17:33:02;4.88;;;2.10;;
49472;SDS011;67434;50.956;6.918;2023-02-02T17:35:48;10.07;;;2.53;;
49472;SDS011;67434;50.956;6.918;2023-02-02T17:38:37;9.10;;;2.33;;
49472;SDS011;67434;50.956;6.918;2023-02-02T17:41:23;6.10;;;2.10;;
49472;SDS011;67434;50.956;6.918;2023-02-02T17:44:09;5.95;;;1.90;;
49472;SDS011;67434;50.956;6.918;2023-02-02T17:46:54;3.90;;;1.90;;
49472;SDS011;67434;50.956;6.918;2023-02-02T17:49:40;6.85;;;2.10;;
49472;SDS011;67434;50.956;6.918;2023-02-02T17:52:26;8.63;;;2.70;;
49472;SDS011;67434;50.956;6.918;2023-02-02T17:55:13;6.13;;;2.58;;
49472;SDS011;67434;50.956;6.918;2023-02-02T17:58:10;10.95;;;3.00;;
49472;SDS011;67434;50.956;6.918;2023-02-02T18:00:59;11.27;;;2.25;;
49472;SDS011;67434;50.956;6.918;2023-02-02T18:03:45;9.52;;;2.90;;
49472;SDS011;67434;50.956;6.918;2023-02-02T18:06:32;8.93;;;2.67;;
49472;SDS011;67434;50.956;6.918;2023-02-02T18:09:17;5.72;;;2.70;;
49472;SDS011;67434;50.956;6.918;2023-02-02T18:12:03;11.13;;;3.17;;
49472;SDS011;67434;50.956;6.918;2023-02-02T18:14:49;8.48;;;3.45;;
49472;SDS011;67434;50.956;6.918;2023-02-02T18:17:34;7.13;;;3.58;;
49472;SDS011;67434;50.956;6.918;2023-02-02T18:20:20;5.78;;;3.15;;
49472;SDS011;67434;50.956;6.918;2023-02-02T18:23:06;8.73;;;3.03;;
49472;SDS011;67434;50.956;6.918;2023-02-02T18:25:51;11.43;;;3.83;;
49472;SDS011;67434;50.956;6.918;2023-02-02T18:28:37;11.55;;;3.58;;
49472;SDS011;67434;50.956;6.918;2023-02-02T18:31:23;9.13;;;4.18;;
49472;SDS011;67434;50.956;6.918;2023-02-02T18:34:08;9.15;;;3.53;;
49472;SDS011;67434;50.956;6.918;2023-02-02T18:36:54;12.88;;;4.53;;
49472;SDS011;67434;50.956;6.918;2023-02-02T18:39:40;10.52;;;4.47;;
49472;SDS011;67434;50.956;6.918;2023-02-02T18:45:14;8.05;;;4.38;;
49472;SDS011;67434;50.956;6.918;2023-02-02T18:47:59;8.40;;;4.50;;
49472;SDS011;67434;50.956;6.918;2023-02-02T18:50:45;16.00;;;6.45;;
49472;SDS011;67434;50.956;6.918;2023-02-02T18:53:31;12.90;;;5.45;;
49472;SDS011;67434;50.956;6.918;2023-02-02T18:56:17;8.60;;;4.75;;
49472;SDS011;67434;50.956;6.918;2023-02-02T18:59:03;11.57;;;4.45;;
49472;SDS011;67434;50.956;6.918;2023-02-02T19:01:50;11.43;;;4.97;;
49472;SDS011;67434;50.956;6.918;2023-02-02T19:04:35;11.75;;;4.90;;
49472;SDS011;67434;50.956;6.918;2023-02-02T19:07:21;8.75;;;4.25;;
49472;SDS011;67434;50.956;6.918;2023-02-02T19:10:27;7.78;;;4.38;;
49472;SDS011;67434;50.956;6.918;2023-02-02T19:13:15;7.35;;;5.03;;
49472;SDS011;67434;50.956;6.918;2023-02-02T19:16:04;10.75;;;4.97;;
49472;SDS011;67434;50.956;6.918;2023-02-02T19:19:03;10.35;;;6.13;;
49472;SDS011;67434;50.956;6.918;2023-02-02T19:21:56;16.40;;;6.00;;
49472;SDS011;67434;50.956;6.918;2023-02-02T19:24:42;8.65;;;5.20;;
49472;SDS011;67434;50.956;6.918;2023-02-02T19:27:28;10.88;;;4.78;;
49472;SDS011;67434;50.956;6.918;2023-02-02T19:30:19;8.95;;;5.18;;
49472;SDS011;67434;50.956;6.918;2023-02-02T19:33:08;6.85;;;4.70;;
49472;SDS011;67434;50.956;6.918;2023-02-02T19:35:56;12.88;;;4.90;;
49472;SDS011;67434;50.956;6.918;2023-02-02T19:38:42;12.15;;;5.63;;
49472;SDS011;67434;50.956;6.918;2023-02-02T19:41:29;10.00;;;5.72;;
49472;SDS011;67434;50.956;6.918;2023-02-02T19:44:19;9.80;;;5.45;;
49472;SDS011;67434;50.956;6.918;2023-02-02T19:47:15;11.00;;;5.30;;
49472;SDS011;67434;50.956;6.918;2023-02-02T19:50:15;10.20;;;5.07;;
49472;SDS011;67434;50.956;6.918;2023-02-02T19:53:10;8.93;;;4.82;;
49472;SDS011;67434;50.956;6.918;2023-02-02T19:55:58;8.43;;;4.45;;
49472;SDS011;67434;50.956;6.918;2023-02-02T19:58:43;15.05;;;5.40;;
49472;SDS011;67434;50.956;6.918;2023-02-02T20:01:31;10.88;;;4.22;;
49472;SDS011;67434;50.956;6.918;2023-02-02T20:04:18;6.32;;;4.60;;
49472;SDS011;67434;50.956;6.918;2023-02-02T20:07:08;10.43;;;4.85;;
49472;SDS011;67434;50.956;6.918;2023-02-02T20:10:14;11.65;;;4.57;;
49472;SDS011;67434;50.956;6.918;2023-02-02T20:13:20;11.57;;;4.65;;
49472;SDS011;67434;50.956;6.918;2023-02-02T20:16:10;11.55;;;4.93;;
49472;SDS011;67434;50.956;6.918;2023-02-02T20:19:02;10.10;;;5.05;;
49472;SDS011;67434;50.956;6.918;2023-02-02T20:21:48;9.27;;;5.90;;
49472;SDS011;67434;50.956;6.918;2023-02-02T20:24:36;10.80;;;4.82;;
49472;SDS011;67434;50.956;6.918;2023-02-02T20:27:25;11.85;;;5.38;;
49472;SDS011;67434;50.956;6.918;2023-02-02T20:30:20;10.75;;;5.05;;
49472;SDS011;67434;50.956;6.918;2023-02-02T20:36:18;14.38;;;5.70;;
49472;SDS011;67434;50.956;6.918;2023-02-02T20:39:14;11.30;;;5.35;;
49472;SDS011;67434;50.956;6.918;2023-02-02T20:42:04;11.52;;;5.50;;
49472;SDS011;67434;50.956;6.918;2023-02-02T20:44:50;11.43;;;5.68;;
49472;SDS011;67434;50.956;6.918;2023-02-02T20:47:36;15.05;;;5.68;;
49472;SDS011;67434;50.956;6.918;2023-02-02T20:50:22;8.75;;;5.93;;
49472;SDS011;67434;50.956;6.918;2023-02-02T20:53:07;9.60;;;6.20;;
49472;SDS011;67434;50.956;6.918;2023-02-02T20:55:54;11.60;;;6.22;;
49472;SDS011;67434;50.956;6.918;2023-02-02T20:58:42;11.65;;;6.45;;
49472;SDS011;67434;50.956;6.918;2023-02-02T21:01:28;13.88;;;6.20;;